sensor_id;sensor_type;location;lat;lon;timestamp;temperature;humidity
46336;DHT22;31365;48.858;8.530;2023-05-13T00:00:37;12.20;99.90
46336;DHT22;31365;48.858;8.530;2023-05-13T00:03:05;12.10;99.90
46336;DHT22;31365;48.858;8.530;2023-05-13T00:05:36;12.10;99.90
46336;DHT22;31365;48.858;8.530;2023-05-13T00:08:05;12.00;99.90
46336;DHT22;31365;48.858;8.530;2023-05-13T00:10:34;11.90;99.90
46336;DHT22;31365;48.858;8.530;2023-05-13T00:13:02;11.80;99.90
46336;DHT22;31365;48.858;8.530;2023-05-13T00:15:30;11.70;99.90
46336;DHT22;31365;48.858;8.530;2023-05-13T00:17:59;11.60;99.90
46336;DHT22;31365;48.858;8.530;2023-05-13T00:20:27;11.60;99.90
46336;DHT22;31365;48.858;8.530;2023-05-13T00:22:56;11.50;99.90
46336;DHT22;31365;48.858;8.530;2023-05-13T00:25:25;11.50;99.90
46336;DHT22;31365;48.858;8.530;2023-05-13T00:27:53;11.40;99.90
46336;DHT22;31365;48.858;8.530;2023-05-13T00:30:21;11.30;99.90
46336;DHT22;31365;48.858;8.530;2023-05-13T00:32:50;11.30;99.90
46336;DHT22;31365;48.858;8.530;2023-05-13T00:35:18;11.20;99.90
46336;DHT22;31365;48.858;8.530;2023-05-13T00:37:46;11.20;99.90
46336;DHT22;31365;48.858;8.530;2023-05-13T00:40:19;11.10;99.90
46336;DHT22;31365;48.858;8.530;2023-05-13T00:42:49;11.00;99.90
46336;DHT22;31365;48.858;8.530;2023-05-13T00:45:19;10.90;99.90
46336;DHT22;31365;48.858;8.530;2023-05-13T00:47:47;10.90;99.90
46336;DHT22;31365;48.858;8.530;2023-05-13T00:50:16;10.90;99.90
46336;DHT22;31365;48.858;8.530;2023-05-13T00:52:46;10.80;99.90
46336;DHT22;31365;48.858;8.530;2023-05-13T00:55:18;10.80;99.90
46336;DHT22;31365;48.858;8.530;2023-05-13T00:57:47;10.70;99.90
46336;DHT22;31365;48.858;8.530;2023-05-13T01:00:16;10.70;99.90
46336;DHT22;31365;48.858;8.530;2023-05-13T01:02:49;10.60;99.90
46336;DHT22;31365;48.858;8.530;2023-05-13T01:05:28;10.60;99.90
46336;DHT22;31365;48.858;8.530;2023-05-13T01:08:08;10.50;99.90
46336;DHT22;31365;48.858;8.530;2023-05-13T01:10:49;10.40;99.90
46336;DHT22;31365;48.858;8.530;2023-05-13T01:13:23;10.40;99.90
46336;DHT22;31365;48.858;8.530;2023-05-13T01:15:59;10.30;99.90
46336;DHT22;31365;48.858;8.530;2023-05-13T01:18:33;10.30;99.90
46336;DHT22;31365;48.858;8.530;2023-05-13T01:21:05;10.30;99.90
46336;DHT22;31365;48.858;8.530;2023-05-13T01:23:36;10.30;99.90
46336;DHT22;31365;48.858;8.530;2023-05-13T01:26:05;10.30;99.90
46336;DHT22;31365;48.858;8.530;2023-05-13T01:28:33;10.20;99.90
46336;DHT22;31365;48.858;8.530;2023-05-13T01:31:03;10.30;99.90
46336;DHT22;31365;48.858;8.530;2023-05-13T01:33:32;10.30;99.90
46336;DHT22;31365;48.858;8.530;2023-05-13T01:36:00;10.20;99.90
46336;DHT22;31365;48.858;8.530;2023-05-13T01:38:30;10.20;99.90
46336;DHT22;31365;48.858;8.530;2023-05-13T01:41:01;10.20;99.90
46336;DHT22;31365;48.858;8.530;2023-05-13T01:47:18;10.20;99.90
46336;DHT22;31365;48.858;8.530;2023-05-13T01:49:47;10.20;99.90
46336;DHT22;31365;48.858;8.530;2023-05-13T01:52:15;10.20;99.90
46336;DHT22;31365;48.858;8.530;2023-05-13T01:54:44;10.20;99.90
46336;DHT22;31365;48.858;8.530;2023-05-13T01:57:14;10.20;99.90
46336;DHT22;31365;48.858;8.530;2023-05-13T01:59:42;10.20;99.90
46336;DHT22;31365;48.858;8.530;2023-05-13T02:02:11;10.20;99.90
46336;DHT22;31365;48.858;8.530;2023-05-13T02:04:39;10.20;99.90
46336;DHT22;31365;48.858;8.530;2023-05-13T02:07:08;10.20;99.90
46336;DHT22;31365;48.858;8.530;2023-05-13T02:09:36;10.10;99.90
46336;DHT22;31365;48.858;8.530;2023-05-13T02:12:06;10.10;99.90
46336;DHT22;31365;48.858;8.530;2023-05-13T02:14:36;10.10;99.90
46336;DHT22;31365;48.858;8.530;2023-05-13T02:17:04;10.10;99.90
46336;DHT22;31365;48.858;8.530;2023-05-13T02:19:32;10.00;99.90
46336;DHT22;31365;48.858;8.530;2023-05-13T02:22:00;9.90;99.90
46336;DHT22;31365;48.858;8.530;2023-05-13T02:24:29;9.90;99.90
46336;DHT22;31365;48.858;8.530;2023-05-13T02:26:58;9.80;99.90
46336;DHT22;31365;48.858;8.530;2023-05-13T02:29:27;9.80;99.90
46336;DHT22;31365;48.858;8.530;2023-05-13T02:31:56;9.70;99.90
46336;DHT22;31365;48.858;8.530;2023-05-13T02:34:24;9.70;99.90
46336;DHT22;31365;48.858;8.530;2023-05-13T02:36:53;9.70;99.90
46336;DHT22;31365;48.858;8.530;2023-05-13T02:39:21;9.70;99.90
46336;DHT22;31365;48.858;8.530;2023-05-13T02:41:49;9.70;99.90
46336;DHT22;31365;48.858;8.530;2023-05-13T02:44:18;9.60;99.90
46336;DHT22;31365;48.858;8.530;2023-05-13T02:46:48;9.60;99.90
46336;DHT22;31365;48.858;8.530;2023-05-13T02:49:18;9.50;99.90
46336;DHT22;31365;48.858;8.530;2023-05-13T02:51:47;9.50;99.90
46336;DHT22;31365;48.858;8.530;2023-05-13T02:54:19;9.40;99.90
46336;DHT22;31365;48.858;8.530;2023-05-13T02:56:47;9.40;99.90
46336;DHT22;31365;48.858;8.530;2023-05-13T02:59:16;9.40;99.90
46336;DHT22;31365;48.858;8.530;2023-05-13T03:01:45;9.40;99.90
46336;DHT22;31365;48.858;8.530;2023-05-13T03:04:13;9.40;99.90
46336;DHT22;31365;48.858;8.530;2023-05-13T03:06:43;9.30;99.90
46336;DHT22;31365;48.858;8.530;2023-05-13T03:09:11;9.30;99.90
46336;DHT22;31365;48.858;8.530;2023-05-13T03:11:39;9.20;99.90
46336;DHT22;31365;48.858;8.530;2023-05-13T03:14:07;9.10;99.90
46336;DHT22;31365;48.858;8.530;2023-05-13T03:16:36;9.00;99.90
46336;DHT22;31365;48.858;8.530;2023-05-13T03:19:05;9.00;99.90
46336;DHT22;31365;48.858;8.530;2023-05-13T03:21:33;9.00;99.90
46336;DHT22;31365;48.858;8.530;2023-05-13T03:24:04;9.00;99.90
46336;DHT22;31365;48.858;8.530;2023-05-13T03:26:33;9.00;99.90
46336;DHT22;31365;48.858;8.530;2023-05-13T03:29:02;9.00;99.90
46336;DHT22;31365;48.858;8.530;2023-05-13T03:31:31;9.00;99.90
46336;DHT22;31365;48.858;8.530;2023-05-13T03:34:02;8.90;99.90
46336;DHT22;31365;48.858;8.530;2023-05-13T03:36:31;8.90;99.90
46336;DHT22;31365;48.858;8.530;2023-05-13T03:39:00;8.90;99.90
46336;DHT22;31365;48.858;8.530;2023-05-13T03:41:30;8.80;99.90
46336;DHT22;31365;48.858;8.530;2023-05-13T03:43:59;8.80;99.90
46336;DHT22;31365;48.858;8.530;2023-05-13T03:46:27;8.80;99.90
46336;DHT22;31365;48.858;8.530;2023-05-13T03:48:56;8.80;99.90
46336;DHT22;31365;48.858;8.530;2023-05-13T03:51:26;8.80;99.90
46336;DHT22;31365;48.858;8.530;2023-05-13T03:53:55;8.70;99.90
46336;DHT22;31365;48.858;8.530;2023-05-13T03:56:24;8.70;99.90
46336;DHT22;31365;48.858;8.530;2023-05-13T03:58:53;8.70;99.90
46336;DHT22;31365;48.858;8.530;2023-05-13T04:01:23;8.60;99.90
46336;DHT22;31365;48.858;8.530;2023-05-13T04:03:52;8.60;99.90
46336;DHT22;31365;48.858;8.530;2023-05-13T04:06:21;8.70;99.90
46336;DHT22;31365;48.858;8.530;2023-05-13T04:08:50;8.70;99.90
46336;DHT22;31365;48.858;8.530;2023-05-13T04:11:18;8.80;99.90
46336;DHT22;31365;48.858;8.530;2023-05-13T04:13:47;8.90;99.90
46336;DHT22;31365;48.858;8.530;2023-05-13T04:16:16;9.00;99.90
46336;DHT22;31365;48.858;8.530;2023-05-13T04:18:46;9.00;99.90
46336;DHT22;31365;48.858;8.530;2023-05-13T04:21:14;9.10;99.90
46336;DHT22;31365;48.858;8.530;2023-05-13T04:23:44;9.00;99.90
46336;DHT22;31365;48.858;8.530;2023-05-13T04:26:12;9.00;99.90
46336;DHT22;31365;48.858;8.530;2023-05-13T04:28:40;9.10;99.90
46336;DHT22;31365;48.858;8.530;2023-05-13T04:31:08;9.00;99.90
46336;DHT22;31365;48.858;8.530;2023-05-13T04:33:38;9.10;99.90
46336;DHT22;31365;48.858;8.530;2023-05-13T04:36:07;9.10;99.90
46336;DHT22;31365;48.858;8.530;2023-05-13T04:38:36;9.20;99.90
46336;DHT22;31365;48.858;8.530;2023-05-13T04:41:05;9.20;99.90
46336;DHT22;31365;48.858;8.530;2023-05-13T04:43:39;9.30;99.90
46336;DHT22;31365;48.858;8.530;2023-05-13T04:46:08;9.40;99.90
46336;DHT22;31365;48.858;8.530;2023-05-13T04:48:38;9.40;99.90
46336;DHT22;31365;48.858;8.530;2023-05-13T04:51:07;9.50;99.90
46336;DHT22;31365;48.858;8.530;2023-05-13T04:53:36;9.50;99.90
46336;DHT22;31365;48.858;8.530;2023-05-13T04:56:05;9.40;99.90
46336;DHT22;31365;48.858;8.530;2023-05-13T04:58:34;9.40;99.90
46336;DHT22;31365;48.858;8.530;2023-05-13T05:01:02;9.30;99.90
46336;DHT22;31365;48.858;8.530;2023-05-13T05:03:30;9.30;99.90
46336;DHT22;31365;48.858;8.530;2023-05-13T05:06:00;9.40;99.90
46336;DHT22;31365;48.858;8.530;2023-05-13T05:08:29;9.40;99.90
46336;DHT22;31365;48.858;8.530;2023-05-13T05:10:58;9.50;99.90
46336;DHT22;31365;48.858;8.530;2023-05-13T05:13:29;9.60;99.90
46336;DHT22;31365;48.858;8.530;2023-05-13T05:15:58;9.70;99.90
46336;DHT22;31365;48.858;8.530;2023-05-13T05:18:28;9.80;99.90
46336;DHT22;31365;48.858;8.530;2023-05-13T05:20:57;9.80;99.90
46336;DHT22;31365;48.858;8.530;2023-05-13T05:23:29;9.90;99.90
46336;DHT22;31365;48.858;8.530;2023-05-13T05:25:58;10.00;99.90
46336;DHT22;31365;48.858;8.530;2023-05-13T05:28:41;10.00;99.90
46336;DHT22;31365;48.858;8.530;2023-05-13T05:31:15;10.10;99.90
46336;DHT22;31365;48.858;8.530;2023-05-13T05:33:43;10.20;99.90
46336;DHT22;31365;48.858;8.530;2023-05-13T05:36:11;10.30;99.90
46336;DHT22;31365;48.858;8.530;2023-05-13T05:39:03;10.40;99.90
46336;DHT22;31365;48.858;8.530;2023-05-13T05:41:34;10.40;99.90
46336;DHT22;31365;48.858;8.530;2023-05-13T05:44:03;10.40;99.90
46336;DHT22;31365;48.858;8.530;2023-05-13T05:46:32;10.50;99.90
46336;DHT22;31365;48.858;8.530;2023-05-13T05:49:01;10.60;99.90
46336;DHT22;31365;48.858;8.530;2023-05-13T05:51:32;10.60;99.90
46336;DHT22;31365;48.858;8.530;2023-05-13T05:54:04;10.60;99.90
46336;DHT22;31365;48.858;8.530;2023-05-13T05:56:33;10.60;99.90
46336;DHT22;31365;48.858;8.530;2023-05-13T05:59:01;10.50;99.90
46336;DHT22;31365;48.858;8.530;2023-05-13T06:01:29;10.50;99.90
46336;DHT22;31365;48.858;8.530;2023-05-13T06:03:59;10.60;99.90
46336;DHT22;31365;48.858;8.530;2023-05-13T06:06:28;10.60;99.90
46336;DHT22;31365;48.858;8.530;2023-05-13T06:08:58;10.70;99.90
46336;DHT22;31365;48.858;8.530;2023-05-13T06:11:28;10.80;99.90
46336;DHT22;31365;48.858;8.530;2023-05-13T06:13:56;10.80;99.90
46336;DHT22;31365;48.858;8.530;2023-05-13T06:16:25;10.90;99.90
46336;DHT22;31365;48.858;8.530;2023-05-13T06:18:58;11.00;99.90
46336;DHT22;31365;48.858;8.530;2023-05-13T06:21:28;11.00;99.90
46336;DHT22;31365;48.858;8.530;2023-05-13T06:23:58;11.00;99.90
46336;DHT22;31365;48.858;8.530;2023-05-13T06:26:28;11.10;99.90
46336;DHT22;31365;48.858;8.530;2023-05-13T06:28:56;11.10;99.90
46336;DHT22;31365;48.858;8.530;2023-05-13T06:31:25;11.10;99.90
46336;DHT22;31365;48.858;8.530;2023-05-13T06:33:54;11.20;99.90
46336;DHT22;31365;48.858;8.530;2023-05-13T06:36:23;11.30;99.90
46336;DHT22;31365;48.858;8.530;2023-05-13T06:38:52;11.50;99.90
46336;DHT22;31365;48.858;8.530;2023-05-13T06:41:22;11.70;99.90
46336;DHT22;31365;48.858;8.530;2023-05-13T06:43:56;11.90;99.90
46336;DHT22;31365;48.858;8.530;2023-05-13T06:46:27;12.10;99.90
46336;DHT22;31365;48.858;8.530;2023-05-13T06:48:56;12.20;99.90
46336;DHT22;31365;48.858;8.530;2023-05-13T06:51:25;12.30;99.90
46336;DHT22;31365;48.858;8.530;2023-05-13T06:53:54;12.40;99.90
46336;DHT22;31365;48.858;8.530;2023-05-13T06:56:23;12.30;99.90
46336;DHT22;31365;48.858;8.530;2023-05-13T06:58:51;12.30;99.90
46336;DHT22;31365;48.858;8.530;2023-05-13T07:01:21;12.30;99.90
46336;DHT22;31365;48.858;8.530;2023-05-13T07:03:50;12.30;99.90
46336;DHT22;31365;48.858;8.530;2023-05-13T07:06:18;12.40;99.90
46336;DHT22;31365;48.858;8.530;2023-05-13T07:08:47;12.30;99.90
46336;DHT22;31365;48.858;8.530;2023-05-13T07:11:15;12.40;99.90
46336;DHT22;31365;48.858;8.530;2023-05-13T07:13:44;12.50;99.90
46336;DHT22;31365;48.858;8.530;2023-05-13T07:16:13;12.60;99.90
46336;DHT22;31365;48.858;8.530;2023-05-13T07:18:43;12.70;99.90
46336;DHT22;31365;48.858;8.530;2023-05-13T07:21:12;12.90;99.90
46336;DHT22;31365;48.858;8.530;2023-05-13T07:24:02;13.00;99.90
46336;DHT22;31365;48.858;8.530;2023-05-13T07:26:31;13.30;99.90
46336;DHT22;31365;48.858;8.530;2023-05-13T07:29:00;13.30;99.90
46336;DHT22;31365;48.858;8.530;2023-05-13T07:31:29;13.40;99.90
46336;DHT22;31365;48.858;8.530;2023-05-13T07:33:59;13.40;99.90
46336;DHT22;31365;48.858;8.530;2023-05-13T07:36:27;13.50;99.90
46336;DHT22;31365;48.858;8.530;2023-05-13T07:38:55;13.60;99.90
46336;DHT22;31365;48.858;8.530;2023-05-13T07:41:23;13.70;99.90
46336;DHT22;31365;48.858;8.530;2023-05-13T07:43:53;13.80;99.90
46336;DHT22;31365;48.858;8.530;2023-05-13T07:46:22;13.80;99.90
46336;DHT22;31365;48.858;8.530;2023-05-13T07:48:50;13.80;99.90
46336;DHT22;31365;48.858;8.530;2023-05-13T07:51:19;13.90;99.90
46336;DHT22;31365;48.858;8.530;2023-05-13T07:53:47;13.90;99.90
46336;DHT22;31365;48.858;8.530;2023-05-13T07:56:17;14.00;99.90
46336;DHT22;31365;48.858;8.530;2023-05-13T07:58:45;14.10;99.90
46336;DHT22;31365;48.858;8.530;2023-05-13T08:01:13;14.10;99.90
46336;DHT22;31365;48.858;8.530;2023-05-13T08:03:42;14.20;99.90
46336;DHT22;31365;48.858;8.530;2023-05-13T08:06:10;14.40;99.90
46336;DHT22;31365;48.858;8.530;2023-05-13T08:08:40;14.50;99.90
46336;DHT22;31365;48.858;8.530;2023-05-13T08:11:08;14.50;99.90
46336;DHT22;31365;48.858;8.530;2023-05-13T08:13:37;14.60;99.90
46336;DHT22;31365;48.858;8.530;2023-05-13T08:16:05;14.60;99.90
46336;DHT22;31365;48.858;8.530;2023-05-13T08:18:34;14.50;99.90
46336;DHT22;31365;48.858;8.530;2023-05-13T08:21:03;14.60;99.90
46336;DHT22;31365;48.858;8.530;2023-05-13T08:23:31;14.50;99.90
46336;DHT22;31365;48.858;8.530;2023-05-13T08:26:12;14.50;99.90
46336;DHT22;31365;48.858;8.530;2023-05-13T08:28:41;14.60;99.90
46336;DHT22;31365;48.858;8.530;2023-05-13T08:31:10;14.60;99.90
46336;DHT22;31365;48.858;8.530;2023-05-13T08:33:40;14.70;99.90
46336;DHT22;31365;48.858;8.530;2023-05-13T08:36:08;14.90;99.90
46336;DHT22;31365;48.858;8.530;2023-05-13T08:38:37;14.80;99.90
46336;DHT22;31365;48.858;8.530;2023-05-13T08:41:06;14.80;99.90
46336;DHT22;31365;48.858;8.530;2023-05-13T08:43:38;14.90;99.90
46336;DHT22;31365;48.858;8.530;2023-05-13T08:46:09;14.80;99.90
46336;DHT22;31365;48.858;8.530;2023-05-13T08:58:16;14.90;99.90
46336;DHT22;31365;48.858;8.530;2023-05-13T09:39:57;16.00;99.90
46336;DHT22;31365;48.858;8.530;2023-05-13T11:16:06;18.00;99.90
46336;DHT22;31365;48.858;8.530;2023-05-13T11:18:40;18.40;99.90
46336;DHT22;31365;48.858;8.530;2023-05-13T11:21:08;18.70;99.90
46336;DHT22;31365;48.858;8.530;2023-05-13T11:23:50;18.70;99.90
46336;DHT22;31365;48.858;8.530;2023-05-13T11:26:20;18.90;99.90
46336;DHT22;31365;48.858;8.530;2023-05-13T11:29:02;19.20;99.90
46336;DHT22;31365;48.858;8.530;2023-05-13T11:31:45;19.40;99.90
46336;DHT22;31365;48.858;8.530;2023-05-13T11:34:15;19.60;99.90
46336;DHT22;31365;48.858;8.530;2023-05-13T11:36:45;19.70;99.90
46336;DHT22;31365;48.858;8.530;2023-05-13T11:39:16;19.60;99.90
46336;DHT22;31365;48.858;8.530;2023-05-13T11:41:47;19.60;99.90
46336;DHT22;31365;48.858;8.530;2023-05-13T11:44:18;19.50;99.90
46336;DHT22;31365;48.858;8.530;2023-05-13T11:46:53;19.50;99.90
46336;DHT22;31365;48.858;8.530;2023-05-13T11:49:32;19.30;99.90
46336;DHT22;31365;48.858;8.530;2023-05-13T11:52:03;19.00;99.90
46336;DHT22;31365;48.858;8.530;2023-05-13T11:54:39;18.70;99.90
46336;DHT22;31365;48.858;8.530;2023-05-13T11:57:22;18.40;99.90
46336;DHT22;31365;48.858;8.530;2023-05-13T11:59:53;18.30;99.90
46336;DHT22;31365;48.858;8.530;2023-05-13T12:02:25;18.20;99.90
46336;DHT22;31365;48.858;8.530;2023-05-13T12:04:59;18.10;99.90
46336;DHT22;31365;48.858;8.530;2023-05-13T12:07:30;18.10;99.90
46336;DHT22;31365;48.858;8.530;2023-05-13T12:10:00;18.10;99.90
46336;DHT22;31365;48.858;8.530;2023-05-13T12:12:31;18.20;99.90
46336;DHT22;31365;48.858;8.530;2023-05-13T12:15:03;18.30;99.90
46336;DHT22;31365;48.858;8.530;2023-05-13T12:17:35;18.50;99.90
46336;DHT22;31365;48.858;8.530;2023-05-13T12:20:06;18.80;99.90
46336;DHT22;31365;48.858;8.530;2023-05-13T12:22:47;19.20;99.90
46336;DHT22;31365;48.858;8.530;2023-05-13T12:25:46;19.30;99.90
46336;DHT22;31365;48.858;8.530;2023-05-13T12:28:18;19.20;99.90
46336;DHT22;31365;48.858;8.530;2023-05-13T12:30:50;19.20;99.90
46336;DHT22;31365;48.858;8.530;2023-05-13T12:33:22;19.40;99.90
46336;DHT22;31365;48.858;8.530;2023-05-13T12:35:53;19.60;99.90
46336;DHT22;31365;48.858;8.530;2023-05-13T12:38:23;19.80;99.90
46336;DHT22;31365;48.858;8.530;2023-05-13T12:40:52;20.00;99.90
46336;DHT22;31365;48.858;8.530;2023-05-13T12:43:21;19.80;99.90
46336;DHT22;31365;48.858;8.530;2023-05-13T12:45:51;19.70;99.90
46336;DHT22;31365;48.858;8.530;2023-05-13T12:48:24;19.80;99.90
46336;DHT22;31365;48.858;8.530;2023-05-13T12:50:53;20.40;99.90
46336;DHT22;31365;48.858;8.530;2023-05-13T12:53:22;20.90;99.90
46336;DHT22;31365;48.858;8.530;2023-05-13T12:55:50;21.80;99.90
46336;DHT22;31365;48.858;8.530;2023-05-13T12:58:19;22.80;99.90
46336;DHT22;31365;48.858;8.530;2023-05-13T13:00:47;23.40;99.90
46336;DHT22;31365;48.858;8.530;2023-05-13T13:03:15;23.40;99.90
46336;DHT22;31365;48.858;8.530;2023-05-13T13:05:45;23.00;99.90
46336;DHT22;31365;48.858;8.530;2023-05-13T13:08:13;22.00;99.90
46336;DHT22;31365;48.858;8.530;2023-05-13T13:10:41;21.40;99.90
46336;DHT22;31365;48.858;8.530;2023-05-13T13:13:09;20.60;99.90
46336;DHT22;31365;48.858;8.530;2023-05-13T13:15:37;19.80;99.90
46336;DHT22;31365;48.858;8.530;2023-05-13T13:18:06;19.10;99.90
46336;DHT22;31365;48.858;8.530;2023-05-13T13:20:34;18.60;99.90
46336;DHT22;31365;48.858;8.530;2023-05-13T13:23:04;18.30;99.90
46336;DHT22;31365;48.858;8.530;2023-05-13T13:25:32;18.20;99.90
46336;DHT22;31365;48.858;8.530;2023-05-13T13:28:01;18.40;99.90
46336;DHT22;31365;48.858;8.530;2023-05-13T13:30:29;19.40;99.90
46336;DHT22;31365;48.858;8.530;2023-05-13T13:32:58;20.90;99.90
46336;DHT22;31365;48.858;8.530;2023-05-13T13:35:26;22.20;99.90
46336;DHT22;31365;48.858;8.530;2023-05-13T13:37:54;22.70;99.90
46336;DHT22;31365;48.858;8.530;2023-05-13T13:40:23;22.90;99.90
46336;DHT22;31365;48.858;8.530;2023-05-13T13:42:52;22.60;99.90
46336;DHT22;31365;48.858;8.530;2023-05-13T13:45:20;21.60;99.90
46336;DHT22;31365;48.858;8.530;2023-05-13T13:47:50;20.80;99.90
46336;DHT22;31365;48.858;8.530;2023-05-13T13:50:18;20.20;99.90
46336;DHT22;31365;48.858;8.530;2023-05-13T13:52:47;19.90;99.90
46336;DHT22;31365;48.858;8.530;2023-05-13T13:55:18;19.70;99.90
46336;DHT22;31365;48.858;8.530;2023-05-13T13:57:47;19.70;99.90
46336;DHT22;31365;48.858;8.530;2023-05-13T14:00:17;19.90;99.90
46336;DHT22;31365;48.858;8.530;2023-05-13T14:02:45;19.90;99.90
46336;DHT22;31365;48.858;8.530;2023-05-13T14:05:14;19.80;99.90
46336;DHT22;31365;48.858;8.530;2023-05-13T14:07:42;19.80;99.90
46336;DHT22;31365;48.858;8.530;2023-05-13T14:10:10;19.70;99.90
46336;DHT22;31365;48.858;8.530;2023-05-13T14:12:39;19.90;99.90
46336;DHT22;31365;48.858;8.530;2023-05-13T14:15:10;20.20;99.90
46336;DHT22;31365;48.858;8.530;2023-05-13T14:17:38;21.40;99.90
46336;DHT22;31365;48.858;8.530;2023-05-13T14:20:08;23.10;99.90
46336;DHT22;31365;48.858;8.530;2023-05-13T14:22:38;24.10;99.90
46336;DHT22;31365;48.858;8.530;2023-05-13T14:25:06;25.10;99.90
46336;DHT22;31365;48.858;8.530;2023-05-13T14:27:35;25.00;99.90
46336;DHT22;31365;48.858;8.530;2023-05-13T14:30:06;24.80;99.90
46336;DHT22;31365;48.858;8.530;2023-05-13T14:32:36;24.00;99.90
46336;DHT22;31365;48.858;8.530;2023-05-13T14:35:05;23.10;99.90
46336;DHT22;31365;48.858;8.530;2023-05-13T14:37:34;22.30;99.90
46336;DHT22;31365;48.858;8.530;2023-05-13T14:40:03;21.80;99.90
46336;DHT22;31365;48.858;8.530;2023-05-13T14:42:32;22.10;99.90
46336;DHT22;31365;48.858;8.530;2023-05-13T14:45:01;23.00;99.90
46336;DHT22;31365;48.858;8.530;2023-05-13T14:47:29;22.80;99.90
46336;DHT22;31365;48.858;8.530;2023-05-13T14:49:59;22.60;99.90
46336;DHT22;31365;48.858;8.530;2023-05-13T14:52:28;22.20;99.90
46336;DHT22;31365;48.858;8.530;2023-05-13T14:54:56;22.00;99.90
46336;DHT22;31365;48.858;8.530;2023-05-13T14:57:25;21.80;99.90
46336;DHT22;31365;48.858;8.530;2023-05-13T14:59:53;21.30;99.90
46336;DHT22;31365;48.858;8.530;2023-05-13T15:02:24;20.80;99.90
46336;DHT22;31365;48.858;8.530;2023-05-13T15:04:53;20.50;99.90
46336;DHT22;31365;48.858;8.530;2023-05-13T15:07:22;20.30;99.90
46336;DHT22;31365;48.858;8.530;2023-05-13T15:09:51;20.20;99.90
46336;DHT22;31365;48.858;8.530;2023-05-13T15:12:19;20.10;99.90
46336;DHT22;31365;48.858;8.530;2023-05-13T15:14:50;20.00;99.90
46336;DHT22;31365;48.858;8.530;2023-05-13T15:17:20;20.00;99.90
46336;DHT22;31365;48.858;8.530;2023-05-13T15:19:48;19.80;99.90
46336;DHT22;31365;48.858;8.530;2023-05-13T15:22:17;19.60;99.90
46336;DHT22;31365;48.858;8.530;2023-05-13T15:24:46;19.40;99.90
46336;DHT22;31365;48.858;8.530;2023-05-13T15:27:15;19.10;99.90
46336;DHT22;31365;48.858;8.530;2023-05-13T15:29:45;18.90;99.90
46336;DHT22;31365;48.858;8.530;2023-05-13T15:32:13;19.10;99.90
46336;DHT22;31365;48.858;8.530;2023-05-13T15:34:42;19.30;99.90
46336;DHT22;31365;48.858;8.530;2023-05-13T15:37:10;19.60;99.90
46336;DHT22;31365;48.858;8.530;2023-05-13T15:39:38;19.80;99.90
46336;DHT22;31365;48.858;8.530;2023-05-13T15:42:08;19.80;99.90
46336;DHT22;31365;48.858;8.530;2023-05-13T15:44:36;19.70;99.90
46336;DHT22;31365;48.858;8.530;2023-05-13T15:47:05;19.30;99.90
46336;DHT22;31365;48.858;8.530;2023-05-13T15:49:33;19.00;99.90
46336;DHT22;31365;48.858;8.530;2023-05-13T15:52:02;18.70;99.90
46336;DHT22;31365;48.858;8.530;2023-05-13T15:54:33;18.50;99.90
46336;DHT22;31365;48.858;8.530;2023-05-13T15:57:01;18.40;99.90
46336;DHT22;31365;48.858;8.530;2023-05-13T15:59:30;18.40;99.90
46336;DHT22;31365;48.858;8.530;2023-05-13T16:01:58;18.50;99.90
46336;DHT22;31365;48.858;8.530;2023-05-13T16:04:27;18.50;99.90
46336;DHT22;31365;48.858;8.530;2023-05-13T16:06:55;18.50;99.90
46336;DHT22;31365;48.858;8.530;2023-05-13T16:09:23;18.60;99.90
46336;DHT22;31365;48.858;8.530;2023-05-13T16:11:51;18.70;99.90
46336;DHT22;31365;48.858;8.530;2023-05-13T16:14:20;18.80;99.90
46336;DHT22;31365;48.858;8.530;2023-05-13T16:16:49;18.90;99.90
46336;DHT22;31365;48.858;8.530;2023-05-13T16:19:17;19.00;99.90
46336;DHT22;31365;48.858;8.530;2023-05-13T16:21:45;18.90;99.90
46336;DHT22;31365;48.858;8.530;2023-05-13T16:24:13;18.90;99.90
46336;DHT22;31365;48.858;8.530;2023-05-13T16:26:42;18.70;99.90
46336;DHT22;31365;48.858;8.530;2023-05-13T16:29:10;18.40;99.90
46336;DHT22;31365;48.858;8.530;2023-05-13T16:31:38;18.10;99.90
46336;DHT22;31365;48.858;8.530;2023-05-13T16:34:08;17.90;99.90
46336;DHT22;31365;48.858;8.530;2023-05-13T16:36:36;17.70;99.90
46336;DHT22;31365;48.858;8.530;2023-05-13T16:39:04;17.50;99.90
46336;DHT22;31365;48.858;8.530;2023-05-13T16:41:32;17.30;99.90
46336;DHT22;31365;48.858;8.530;2023-05-13T16:44:01;17.20;99.90
46336;DHT22;31365;48.858;8.530;2023-05-13T16:46:29;17.20;99.90
46336;DHT22;31365;48.858;8.530;2023-05-13T16:49:01;17.30;99.90
46336;DHT22;31365;48.858;8.530;2023-05-13T16:51:30;17.20;99.90
46336;DHT22;31365;48.858;8.530;2023-05-13T16:53:58;17.20;99.90
46336;DHT22;31365;48.858;8.530;2023-05-13T16:56:26;17.10;99.90
46336;DHT22;31365;48.858;8.530;2023-05-13T16:58:54;17.10;99.90
46336;DHT22;31365;48.858;8.530;2023-05-13T17:01:22;17.00;99.90
46336;DHT22;31365;48.858;8.530;2023-05-13T17:03:51;17.10;99.90
46336;DHT22;31365;48.858;8.530;2023-05-13T17:06:19;17.10;99.90
46336;DHT22;31365;48.858;8.530;2023-05-13T17:08:48;17.00;99.90
46336;DHT22;31365;48.858;8.530;2023-05-13T17:11:16;16.80;99.90
46336;DHT22;31365;48.858;8.530;2023-05-13T17:13:44;16.80;99.90
46336;DHT22;31365;48.858;8.530;2023-05-13T17:16:12;16.80;99.90
46336;DHT22;31365;48.858;8.530;2023-05-13T17:18:41;16.70;99.90
46336;DHT22;31365;48.858;8.530;2023-05-13T17:21:09;16.60;99.90
46336;DHT22;31365;48.858;8.530;2023-05-13T17:23:37;16.50;99.90
46336;DHT22;31365;48.858;8.530;2023-05-13T17:26:07;16.40;99.90
46336;DHT22;31365;48.858;8.530;2023-05-13T17:28:35;16.30;99.90
46336;DHT22;31365;48.858;8.530;2023-05-13T17:31:04;16.20;99.90
46336;DHT22;31365;48.858;8.530;2023-05-13T17:33:33;16.20;99.90
46336;DHT22;31365;48.858;8.530;2023-05-13T17:36:01;16.10;99.90
46336;DHT22;31365;48.858;8.530;2023-05-13T17:38:29;16.10;99.90
46336;DHT22;31365;48.858;8.530;2023-05-13T17:40:57;16.00;99.90
46336;DHT22;31365;48.858;8.530;2023-05-13T17:43:26;16.00;99.90
46336;DHT22;31365;48.858;8.530;2023-05-13T17:45:54;16.00;99.90
46336;DHT22;31365;48.858;8.530;2023-05-13T17:48:22;15.90;99.90
46336;DHT22;31365;48.858;8.530;2023-05-13T17:50:51;15.90;99.90
46336;DHT22;31365;48.858;8.530;2023-05-13T17:53:19;15.90;99.90
46336;DHT22;31365;48.858;8.530;2023-05-13T17:55:47;15.80;99.90
46336;DHT22;31365;48.858;8.530;2023-05-13T17:58:16;15.80;99.90
46336;DHT22;31365;48.858;8.530;2023-05-13T18:00:46;15.70;99.90
46336;DHT22;31365;48.858;8.530;2023-05-13T18:03:16;15.70;99.90
46336;DHT22;31365;48.858;8.530;2023-05-13T18:05:47;15.70;99.90
46336;DHT22;31365;48.858;8.530;2023-05-13T18:08:15;15.70;99.90
46336;DHT22;31365;48.858;8.530;2023-05-13T18:10:43;15.60;99.90
46336;DHT22;31365;48.858;8.530;2023-05-13T18:13:11;15.60;99.90
46336;DHT22;31365;48.858;8.530;2023-05-13T18:15:40;15.60;99.90